Airfield :
LOGIN :

Register | Disclaimer

   EN    FR    IT 

 










Legend :    VFR   Marginal VFR   IFR   Intensive IFR   Very Intensive IFR
Visi :
Ceiling :
>= 8 km
>= 3000ft
5 to 8 km
1000 to 3000 ft
1500m to 5 km
500 to 1000 ft
800 to 1500m
200 to 500 ft
< 800m
< 200 ft
Symbols :   Thunderstorms  Fog  Heavy snow  Heavy precipitations  Wind > 20 kt
SIGMETs :     Misc.  Thunderstorms  Icing  Turbulence  Mountain Waves  Volcanic Ashes






- Airport Elevation : 995 ft
- IATA code : KTW


EPKT - Katowice

CURRENT METAR :
  • 012000Z VRB02KT CAVOK M04/M09 Q1016

EXPIRED METARs :
  • 011930Z 08002KT CAVOK M03/M08 Q1016
  • 011900Z VRB01KT CAVOK M03/M09 Q1016
  • 011830Z 11002KT CAVOK M01/M09 Q1016
  • 011800Z 26003KT CAVOK 01/M10 Q1016
  • 011730Z 26005KT CAVOK 03/M09 Q1016

TAF TAF EPKT
Valid from the 01 at 18:00 until the 02 at 18:00 UTC


011730Z 0118/0218 24005KT CAVOK
BECMG 0207/0209 24015KT



MET'MAP, your aeronautical weather chart ! - Copyright ORBIFLY December 2007 - Disclaimer

ORBIFLY MET'MAP TEAM :

Programming & Development : Alexandra Zaïnal
Concept & original design : Baudouin d'Aumeries
Assistance for programming : Marc-Olivier Méhu
Technical & hardware support : Manuel Goepfert

Contact : metmap@orbifly.com




SOURCES & CREDITS :

   NOAA